Yvonne K. — PBLX — position and weather

sailwx.info

Track history (hours):
 
Tides and Currents Weather Stations Pressure Air Temp Water Temp Dewpoint Dewpoint Depression Visibility Wind Speed Wind Dir Waves Ship Positions

Yvonne K.

Last reported at 2017-May-26 13:43 UTC. Time now 2017-May-27 08:11 UTC.
Position N 36°00' W 005°15'.

Length 90 m; draft 5.7 m.

Type: Cargo ship. MMSI: 244948000.

Date/timePositionNaut miles runAvg speedWind from/ knotsBaromVisibWave heightAir tempDewpointWater temp
2017-May-26 13:43N 36°00' W 005°15'211.3
2017-May-26 13:30N 35°60' W 005°17'611.1
2017-May-26 13:00N 35°58' W 005°24'510.5
2017-May-26 12:30N 35°57' W 005°30'241 7.6
2017-May-25 04:52N 37°56' W 009°52'3 8.8
2017-May-25 04:30N 37°59' W 009°53'5 9.2
2017-May-25 04:00N 38°04' W 009°54'5 9.0
2017-May-25 03:26N 38°09' W 009°56'4 9.1
2017-May-25 03:00N 38°13' W 009°57'4 8.9
2017-May-25 02:30N 38°17' W 009°58'5 9.0
2017-May-25 02:00N 38°21' W 009°59'5 9.1
2017-May-25 01:30N 38°26' W 010°01'5 9.1
2017-May-25 01:00N 38°30' W 010°02'5 9.1
2017-May-25 00:30N 38°35' W 010°03'5 9.3
2017-May-25 00:00N 38°39' W 010°05'5 9.4
2017-May-24 23:30N 38°44' W 010°05'5 9.4
2017-May-24 23:00N 38°49' W 010°05'5 9.1
2017-May-24 22:30N 38°53' W 010°05'5 9.1
2017-May-24 22:00N 38°58' W 010°05'5 9.4
2017-May-24 21:30N 39°02' W 010°05'5 9.7
2017-May-24 21:00N 39°07' W 010°05'5 9.6
2017-May-24 20:30N 39°12' W 010°05'5 9.8
2017-May-24 20:00N 39°17' W 010°05'510.1
2017-May-24 19:30N 39°22' W 010°05'5 9.4
2017-May-24 19:01N 39°27' W 010°05'5 9.9
2017-May-24 18:30N 39°32' W 010°05'5 9.5
2017-May-24 18:00N 39°36' W 010°05'5 9.4
2017-May-24 17:30N 39°41' W 010°05'5 9.4
2017-May-24 17:00N 39°46' W 010°05'5 9.1
2017-May-24 16:30N 39°50' W 010°05'4 9.0
2017-May-24 16:00N 39°55' W 010°05'5 9.0
2017-May-24 15:30N 39°59' W 010°05'4 8.8
2017-May-24 15:00N 40°04' W 010°05'4 8.8
2017-May-24 14:30N 40°08' W 010°05'11 8.7
2017-May-24 13:15N 40°19' W 010°05'2 8.5
2017-May-24 13:00N 40°21' W 010°05'  
2017-May-16 22:39N 49°46' W 003°24'1 7.8
2017-May-16 22:30N 49°47' W 003°23'8 7.7
2017-May-16 21:26N 49°51' W 003°12'7 8.0
2017-May-16 20:33N 49°55' W 003°02'0 7.7
2017-May-16 20:30N 49°55' W 003°02'4 8.4
2017-May-16 20:00N 49°57' W 002°56'5 9.0
2017-May-16 19:30N 49°59' W 002°49'  
Track history (hours):
 
Tides and Currents Weather Stations Pressure Air Temp Water Temp Dewpoint Dewpoint Depression Visibility Wind Speed Wind Dir Waves Ship Positions

Yvonne K.

Last reported at 2017-May-26 13:43 UTC. Time now 2017-May-27 08:11 UTC.
Position N 36°00' W 005°15'.

Length 90 m; draft 5.7 m.

Type: Cargo ship. MMSI: 244948000.

Date/timePositionNaut miles runAvg speedWind from/ knotsBaromVisibWave heightAir tempDewpointWater temp
2017-May-26 13:43N 36°00' W 005°15'211.3
2017-May-26 13:30N 35°60' W 005°17'611.1
2017-May-26 13:00N 35°58' W 005°24'510.5
2017-May-26 12:30N 35°57' W 005°30'241 7.6
2017-May-25 04:52N 37°56' W 009°52'3 8.8
2017-May-25 04:30N 37°59' W 009°53'5 9.2
2017-May-25 04:00N 38°04' W 009°54'5 9.0
2017-May-25 03:26N 38°09' W 009°56'4 9.1
2017-May-25 03:00N 38°13' W 009°57'4 8.9
2017-May-25 02:30N 38°17' W 009°58'5 9.0
2017-May-25 02:00N 38°21' W 009°59'5 9.1
2017-May-25 01:30N 38°26' W 010°01'5 9.1
2017-May-25 01:00N 38°30' W 010°02'5 9.1
2017-May-25 00:30N 38°35' W 010°03'5 9.3
2017-May-25 00:00N 38°39' W 010°05'5 9.4
2017-May-24 23:30N 38°44' W 010°05'5 9.4
2017-May-24 23:00N 38°49' W 010°05'5 9.1
2017-May-24 22:30N 38°53' W 010°05'5 9.1
2017-May-24 22:00N 38°58' W 010°05'5 9.4
2017-May-24 21:30N 39°02' W 010°05'5 9.7
2017-May-24 21:00N 39°07' W 010°05'5 9.6
2017-May-24 20:30N 39°12' W 010°05'5 9.8
2017-May-24 20:00N 39°17' W 010°05'510.1
2017-May-24 19:30N 39°22' W 010°05'5 9.4
2017-May-24 19:01N 39°27' W 010°05'5 9.9
2017-May-24 18:30N 39°32' W 010°05'5 9.5
2017-May-24 18:00N 39°36' W 010°05'5 9.4
2017-May-24 17:30N 39°41' W 010°05'5 9.4
2017-May-24 17:00N 39°46' W 010°05'5 9.1
2017-May-24 16:30N 39°50' W 010°05'4 9.0
2017-May-24 16:00N 39°55' W 010°05'5 9.0
2017-May-24 15:30N 39°59' W 010°05'4 8.8
2017-May-24 15:00N 40°04' W 010°05'4 8.8
2017-May-24 14:30N 40°08' W 010°05'11 8.7
2017-May-24 13:15N 40°19' W 010°05'2 8.5
2017-May-24 13:00N 40°21' W 010°05'  
2017-May-16 22:39N 49°46' W 003°24'1 7.8
2017-May-16 22:30N 49°47' W 003°23'8 7.7
2017-May-16 21:26N 49°51' W 003°12'7 8.0
2017-May-16 20:33N 49°55' W 003°02'0 7.7
2017-May-16 20:30N 49°55' W 003°02'4 8.4
2017-May-16 20:00N 49°57' W 002°56'5 9.0
2017-May-16 19:30N 49°59' W 002°49'  

Dump ship's entire track history